Roundhead, Ohio
Current Conditions -  °F | °C
As of 2:53 AM on Friday 31 Oct 2014 (Local Time) from KAOH Reporting Station
Overcast Overcast  
Wind Chill:   Ceiling: 4400
Heat Index:   Visibility: 10mi
Dew Point:   Wind: 5mph
Humidity: 71%   Direction: 190°S
Pressure: 30"   Gusts: NA
Location:  40.56°N, 83.84°W
Report Text: KAOH 310653Z AUTO 19004KT 10SM OVC044 07/02 A3000 RMK AO2 SLP162 T00670017
Loading
Personal Weather Stations






























Interactive Weather Map
Tropical Storm Tracking
New forecast layout! Learn more

10-Day Weather Forecast

Advertisements
Track Severe Weather on mobile